DeLand, FL

10:19 AM EDT on June 25, 2018 (GMT -0400)
De Land Municipal-Taylor

Weather History for KDED - November, 2017

Change the Weather History Date:

Monday, November 20, 2017

  Actual Average Record
Temperature  
Mean Temperature 62 °F -  
Max Temperature 75 °F 76 °F 78 °F (2013)
Min Temperature 48 °F 54 °F 39 °F (2014)
Degree Days  
Heating Degree Days 4    
Growing Degree Days 12 (Base 50)    
Moisture  
Dew Point 50 °F    
Average Humidity 68    
Maximum Humidity 94    
Minimum Humidity 47    
Precipitation  
Precipitation 0.00 in - - ()
Sea Level Pressure  
Sea Level Pressure 30.11 in    
Wind  
Wind Speed 8 mph (NNE)    
Max Wind Speed 18 mph    
Max Gust Speed 23 mph    
Visibility 10 miles    
Events      
Averages and records for this station are not official NWS values.
T = Trace of Precipitation, MM = Missing Value Source: NWS Daily Summary

Daily Weather History Graph

Daily Weather History Graph

Search for Another Location

Airport or City:

Astronomy

Nov. 20, 2017 Rise Set
Actual Time 6:52 AM EST 5:28 PM EST
Civil Twilight 6:27 AM EST 5:53 PM EST
Nautical Twilight 5:58 AM EST 6:22 PM EST
Astronomical Twilight 5:30 AM EST 6:51 PM EST
Moon 8:33 AM EST (11/20) 7:24 PM EST (11/20)
Length of Visible Light 11h 26m
Length of Day
10h 35m
Waxing Crescent, 4% of the Moon is Illuminated
Nov 20
Waxing Crescent
Nov 26
First Quarter
Dec 3
Full
Dec 10
Last Quarter
Dec 18
New

Hourly Weather History & Observations

Time (EST) Temp. Dew Point Humidity Pressure Visibility Wind Dir Wind Speed Gust Speed Precip Events Conditions
12:15 AM 53.6 °F 41.0 °F 62% 30.08 in 10.0 mi NNW 9.2 mph - N/A   Clear
12:35 AM 53.6 °F 39.2 °F 58% 30.08 in 10.0 mi North 8.1 mph - N/A   Clear
12:55 AM 53.6 °F 39.2 °F 58% 30.08 in 10.0 mi NNW 9.2 mph - N/A   Clear
1:15 AM 51.8 °F 39.2 °F 62% 30.08 in 10.0 mi NNW 9.2 mph - N/A   Clear
1:35 AM 51.8 °F 39.2 °F 62% 30.08 in 10.0 mi NNW 9.2 mph - N/A   Clear
1:55 AM 51.8 °F 39.2 °F 62% 30.08 in 10.0 mi NNW 9.2 mph - N/A   Clear
2:15 AM 51.8 °F 39.2 °F 62% 30.08 in 10.0 mi NNW 9.2 mph - N/A   Clear
2:35 AM 51.8 °F 41.0 °F 67% 30.08 in 10.0 mi North 10.4 mph - N/A   Clear
2:55 AM 51.8 °F 41.0 °F 67% 30.08 in 10.0 mi North 10.4 mph - N/A   Clear
3:15 AM 51.8 °F 41.0 °F 67% 30.08 in 10.0 mi North 9.2 mph - N/A   Clear
3:35 AM 50.0 °F 41.0 °F 71% 30.09 in 10.0 mi NNW 8.1 mph - N/A   Clear
3:55 AM 50.0 °F 41.0 °F 71% 30.09 in 10.0 mi NNW 8.1 mph - N/A   Clear
4:15 AM 50.0 °F 41.0 °F 71% 30.09 in 10.0 mi NNW 8.1 mph - N/A   Clear
4:35 AM 50.0 °F 41.0 °F 71% 30.09 in 10.0 mi NNW 9.2 mph - N/A   Clear
4:55 AM 50.0 °F 41.0 °F 71% 30.09 in 10.0 mi NNW 9.2 mph - N/A   Clear
5:15 AM 50.0 °F 41.0 °F 71% 30.10 in 10.0 mi NNW 8.1 mph - N/A   Clear
5:35 AM 48.2 °F 41.0 °F 76% 30.10 in 10.0 mi NNW 6.9 mph - N/A   Clear
5:55 AM 48.2 °F 41.0 °F 76% 30.10 in 10.0 mi NNW 6.9 mph - N/A   Clear
6:15 AM 48.2 °F 41.0 °F 76% 30.11 in 10.0 mi NNW 8.1 mph - N/A   Clear
6:35 AM 48.2 °F 41.0 °F 76% 30.12 in 10.0 mi NNW 6.9 mph - N/A   Clear
6:55 AM 48.2 °F 41.0 °F 76% 30.12 in 10.0 mi NNW 6.9 mph - N/A   Clear
7:15 AM 48.2 °F 41.0 °F 76% 30.12 in 10.0 mi NNW 6.9 mph - N/A   Clear
7:35 AM 48.2 °F 42.8 °F 82% 30.12 in 10.0 mi NNW 5.8 mph - N/A   Clear
7:55 AM 50.0 °F 42.8 °F 76% 30.13 in 10.0 mi NNW 5.8 mph - N/A   Clear
8:15 AM 51.8 °F 44.6 °F 76% 30.14 in 10.0 mi NNW 5.8 mph - N/A   Clear
8:35 AM 53.6 °F 44.6 °F 72% 30.14 in 10.0 mi NNW 6.9 mph - N/A   Clear
8:55 AM 55.4 °F 46.4 °F 72% 30.15 in 10.0 mi North 5.8 mph - N/A   Clear
9:15 AM 59.0 °F 48.2 °F 67% 30.15 in 10.0 mi North 5.8 mph - N/A   Clear
9:35 AM 60.8 °F 50.0 °F 68% 30.16 in 10.0 mi North 4.6 mph - N/A   Clear
9:55 AM 64.4 °F 51.8 °F 64% 30.16 in 10.0 mi North 5.8 mph - N/A   Clear
10:15 AM 66.2 °F 53.6 °F 64% 30.16 in 10.0 mi NNE 5.8 mph - N/A   Clear
10:35 AM 68.0 °F 55.4 °F 64% 30.16 in 10.0 mi NE 5.8 mph - N/A   Clear
10:55 AM 71.6 °F 55.4 °F 57% 30.15 in 10.0 mi ENE 13.8 mph - N/A   Clear
11:15 AM 73.4 °F 55.4 °F 53% 30.15 in 10.0 mi NE 13.8 mph - N/A   Mostly Cloudy
11:35 AM 75.2 °F 53.6 °F 47% 30.15 in 10.0 mi ESE 18.4 mph - N/A   Scattered Clouds
11:55 AM 73.4 °F 55.4 °F 53% 30.14 in 10.0 mi East 12.7 mph - N/A   Mostly Cloudy
12:15 PM 71.6 °F 55.4 °F 57% 30.13 in 10.0 mi East 12.7 mph - N/A   Mostly Cloudy
12:35 PM 75.2 °F 55.4 °F 50% 30.12 in 10.0 mi ESE 13.8 mph - N/A   Mostly Cloudy
12:55 PM 71.6 °F 55.4 °F 57% 30.12 in 10.0 mi ENE 11.5 mph - N/A   Overcast
1:10 PM 73.4 °F 55.4 °F 53% 30.12 in 10.0 mi ENE 15.0 mph 18.4 mph N/A   Overcast
1:35 PM 73.4 °F 55.4 °F 53% 30.11 in 10.0 mi East 13.8 mph 23.0 mph N/A   Overcast
1:55 PM 75.2 °F 55.4 °F 50% 30.11 in 10.0 mi ENE 13.8 mph - N/A   Overcast
2:15 PM 73.4 °F 53.6 °F 50% 30.11 in 10.0 mi East 11.5 mph - N/A   Overcast
2:35 PM 73.4 °F 53.6 °F 50% 30.10 in 10.0 mi ESE 16.1 mph - N/A   Overcast
2:55 PM 73.4 °F 53.6 °F 50% 30.10 in 10.0 mi East 13.8 mph 21.9 mph N/A   Mostly Cloudy
3:15 PM 71.6 °F 53.6 °F 53% 30.10 in 10.0 mi East 12.7 mph - N/A   Mostly Cloudy
3:35 PM 71.6 °F 55.4 °F 57% 30.10 in 10.0 mi East 13.8 mph - N/A   Mostly Cloudy
3:55 PM 71.6 °F 55.4 °F 57% 30.10 in 10.0 mi East 11.5 mph - N/A   Mostly Cloudy
4:15 PM 71.6 °F 55.4 °F 57% 30.11 in 10.0 mi ESE 8.1 mph - N/A   Mostly Cloudy
4:35 PM 73.4 °F 55.4 °F 53% 30.11 in 10.0 mi East 10.4 mph - N/A   Mostly Cloudy
4:55 PM 71.6 °F 55.4 °F 57% 30.11 in 10.0 mi East 8.1 mph - N/A   Mostly Cloudy
5:15 PM 69.8 °F 57.2 °F 64% 30.11 in 10.0 mi East 5.8 mph - N/A   Mostly Cloudy
5:35 PM 68.0 °F 57.2 °F 68% 30.11 in 10.0 mi ENE 4.6 mph - N/A   Mostly Cloudy
5:55 PM 68.0 °F 57.2 °F 68% 30.11 in 10.0 mi ENE 4.6 mph - N/A   Mostly Cloudy
6:15 PM 66.2 °F 57.2 °F 73% 30.11 in 10.0 mi ENE 3.5 mph - N/A   Scattered Clouds
6:35 PM 66.2 °F 57.2 °F 73% 30.12 in 10.0 mi NE 3.5 mph - N/A   Scattered Clouds
6:55 PM 64.4 °F 57.2 °F 77% 30.12 in 10.0 mi NE 3.5 mph - N/A   Mostly Cloudy
7:15 PM 64.4 °F 57.2 °F 77% 30.12 in 10.0 mi East 4.6 mph - N/A   Mostly Cloudy
7:35 PM 64.4 °F 57.2 °F 77% 30.12 in 10.0 mi East 3.5 mph - N/A   Mostly Cloudy
7:55 PM 64.4 °F 57.2 °F 77% 30.13 in 10.0 mi East 3.5 mph - N/A   Overcast
8:15 PM 64.4 °F 57.2 °F 77% 30.13 in 10.0 mi East 5.8 mph - N/A   Mostly Cloudy
8:35 PM 62.6 °F 55.4 °F 77% 30.13 in 10.0 mi Calm Calm - N/A   Scattered Clouds
8:55 PM 62.6 °F 55.4 °F 77% 30.13 in 10.0 mi East 4.6 mph - N/A   Mostly Cloudy
9:15 PM 62.6 °F 55.4 °F 77% 30.13 in 10.0 mi East 4.6 mph - N/A   Mostly Cloudy
9:35 PM 62.6 °F 55.4 °F 77% 30.12 in 10.0 mi East 5.8 mph - N/A   Scattered Clouds
9:55 PM 62.6 °F 55.4 °F 77% 30.12 in 10.0 mi East 3.5 mph - N/A   Scattered Clouds
10:15 PM 62.6 °F 55.4 °F 77% 30.12 in 10.0 mi Calm Calm - N/A   Scattered Clouds
10:35 PM 60.8 °F 55.4 °F 82% 30.12 in 10.0 mi Calm Calm - N/A   Scattered Clouds
10:55 PM 59.0 °F 55.4 °F 88% 30.12 in 10.0 mi Calm Calm - N/A   Scattered Clouds
11:15 PM 59.0 °F 55.4 °F 88% 30.11 in 10.0 mi Calm Calm - N/A   Clear
11:35 PM 57.2 °F 53.6 °F 88% 30.11 in 10.0 mi NW 3.5 mph - N/A   Scattered Clouds
11:55 PM 57.2 °F 55.4 °F 94% 30.11 in 10.0 mi Calm Calm - N/A   Clear